Messwerte Wetterstation Waren (Müritz) 73m (Mecklenburg-Vorpommern)

Aktuelle Messwerte

Temperatur und Niederschlag
Taupunkt, Temperatur und Luftfeuchtigkeit

Anzeige

Windrichtung und Windböen
Luftdruck
Datum Temperatur °C Niederschlag l/m² (10 min) Taupunkt °C Rel. Feuchte % Windböen km/h Windrichtung Luftdruck (hPa)
20.04 - 07:50 Uhr - 0.0 - - 20 10 -
20.04 - 07:40 Uhr - 0.0 - - 18 360 -
20.04 - 07:30 Uhr - 0.0 - - 20 360 -
20.04 - 07:20 Uhr 5.6 0.0 4.6 93 16 350 1007
20.04 - 07:10 Uhr 5.5 0.0 4.5 93 14 360 1007
20.04 - 07:00 Uhr 5.5 0.0 4.6 94 13 350 1007
20.04 - 06:50 Uhr 5.4 0.0 4.5 94 14 360 1007
20.04 - 06:40 Uhr 5.4 0.1 4.3 93 15 360 1007
20.04 - 06:30 Uhr 5.4 0.1 4.3 93 21 360 1007
20.04 - 06:20 Uhr 5.3 0.1 4.3 93 18 10 1007
20.04 - 06:10 Uhr 5.3 0.0 4.1 92 20 350 1006
20.04 - 06:00 Uhr 5.2 0.1 4.2 93 18 360 1006
20.04 - 05:50 Uhr 5.3 0.2 4.4 94 18 30 1006
20.04 - 05:40 Uhr 5.3 0.2 4.2 93 19 10 1006
20.04 - 05:30 Uhr 5.2 0.2 4.2 93 19 30 1007
20.04 - 05:20 Uhr 5.2 0.3 4.3 94 18 360 1007
20.04 - 05:10 Uhr 5.2 0.4 4.3 94 24 30 1007
20.04 - 05:00 Uhr 5.2 0.2 4.3 94 23 20 1007
20.04 - 04:50 Uhr 5.2 0.2 4.4 94 23 30 1006
20.04 - 04:40 Uhr 5.2 0.2 4.3 94 24 10 1006
20.04 - 04:30 Uhr 5.2 0.2 4.2 93 26 30 1006
20.04 - 04:20 Uhr 5.2 0.2 4.3 94 33 30 1006
20.04 - 04:10 Uhr 5.2 0.2 4.3 94 26 10 1006
20.04 - 04:00 Uhr 5.3 0.2 4.3 93 29 40 1006
20.04 - 03:50 Uhr 5.3 0.3 4.5 95 28 30 1006
20.04 - 03:40 Uhr 5.4 0.2 4.5 94 32 20 1006
20.04 - 03:30 Uhr 5.4 0.2 4.6 94 26 30 1006
20.04 - 03:20 Uhr 5.5 0.3 4.8 95 27 360 1006
20.04 - 03:10 Uhr 5.5 0.4 4.7 94 27 20 1006
20.04 - 03:00 Uhr 5.5 0.5 4.7 95 32 30 1006
20.04 - 02:50 Uhr 5.6 0.5 4.8 94 27 360 1006
20.04 - 02:40 Uhr 5.6 0.4 5.0 96 23 40 1006
20.04 - 02:30 Uhr 5.5 0.7 4.7 94 24 20 1006
20.04 - 02:20 Uhr 5.5 0.6 4.7 95 21 20 1006
20.04 - 02:10 Uhr 5.5 0.5 4.7 95 32 360 1006
20.04 - 02:00 Uhr 5.4 0.7 4.5 94 37 350 1006
20.04 - 01:50 Uhr 5.3 0.4 4.4 94 25 360 1006
20.04 - 01:40 Uhr 5.2 0.3 4.5 95 24 10 1006
20.04 - 01:30 Uhr 5.2 0.3 4.4 95 27 340 1006
20.04 - 01:20 Uhr 5.1 0.6 4.3 95 37 350 1006
20.04 - 01:10 Uhr 5.1 0.9 4.4 95 27 350 1006
20.04 - 01:00 Uhr 5.1 0.9 4.4 95 28 350 1006
20.04 - 00:50 Uhr 5.2 0.9 4.6 96 27 340 1007
20.04 - 00:40 Uhr 5.2 0.7 4.4 95 31 350 1006
20.04 - 00:30 Uhr 5.2 0.6 4.3 94 30 350 1006
20.04 - 00:20 Uhr 5.2 0.7 4.3 94 34 10 1007
20.04 - 00:10 Uhr 5.3 0.8 4.4 94 31 350 1007
20.04 - 00:00 Uhr 5.4 0.6 4.5 94 37 350 1006
19.04 - 23:50 Uhr 5.5 0.6 4.7 95 31 330 1007
19.04 - 23:40 Uhr 5.6 0.7 4.8 95 36 340 1007
19.04 - 23:30 Uhr 5.6 0.8 4.8 95 33 340 1007
19.04 - 23:20 Uhr 5.7 0.4 4.8 94 31 330 1007
19.04 - 23:10 Uhr 5.7 0.5 4.8 94 37 330 1007
19.04 - 23:00 Uhr 5.8 0.6 4.8 94 34 350 1007
19.04 - 22:50 Uhr 5.9 0.4 4.9 93 28 330 1007
19.04 - 22:40 Uhr 6.0 0.3 5.2 94 37 350 1007
19.04 - 22:30 Uhr 6.0 0.6 5.1 94 31 340 1007
19.04 - 22:20 Uhr 6.0 0.6 5.1 94 31 350 1007
19.04 - 22:10 Uhr 6.0 0.6 4.9 93 38 360 1007
19.04 - 22:00 Uhr 6.1 0.4 5.3 95 28 340 1007
19.04 - 21:50 Uhr 6.1 0.7 5.4 95 29 350 1007
19.04 - 21:40 Uhr 6.1 0.8 5.4 95 28 350 1007
19.04 - 21:30 Uhr 6.2 0.6 5.4 94 26 350 1007
19.04 - 21:20 Uhr 6.2 0.5 5.3 94 27 320 1007
19.04 - 21:10 Uhr 6.2 0.6 5.4 95 30 340 1007
19.04 - 21:00 Uhr 6.3 0.7 5.5 95 28 310 1007
19.04 - 20:50 Uhr 6.4 0.7 5.5 94 31 330 1007
19.04 - 20:40 Uhr 6.7 0.9 5.8 94 25 350 1007
19.04 - 20:30 Uhr 7.0 1.1 6.2 95 30 320 1007
19.04 - 20:20 Uhr 7.0 1.2 6.2 95 26 330 1007
19.04 - 20:10 Uhr 7.1 0.9 6.3 95 31 310 1007
19.04 - 20:00 Uhr 7.1 0.8 6.0 93 35 310 1007
19.04 - 19:50 Uhr 7.1 0.7 6.2 94 32 300 1008
19.04 - 19:40 Uhr 7.1 0.4 6.1 94 27 320 1008
19.04 - 19:30 Uhr 7.1 0.6 6.1 94 28 300 1008
19.04 - 19:20 Uhr 7.1 0.7 6.2 94 27 310 1008
19.04 - 19:10 Uhr 7.1 0.7 6.0 93 29 310 1008
19.04 - 19:00 Uhr 7.1 0.7 5.9 92 35 290 1008
19.04 - 18:50 Uhr 7.0 0.7 5.8 92 32 310 1008
19.04 - 18:40 Uhr 7.1 0.8 6.2 94 27 320 1008
19.04 - 18:30 Uhr 7.0 0.7 6.1 94 28 310 1008
19.04 - 18:20 Uhr 7.0 0.7 6.0 93 22 340 1008
19.04 - 18:10 Uhr 7.0 0.7 6.1 94 27 330 1008
19.04 - 18:00 Uhr 7.0 0.5 6.2 95 24 310 1008
19.04 - 17:50 Uhr 7.1 0.6 6.2 94 23 340 1008
19.04 - 17:40 Uhr 7.1 0.6 6.2 94 23 300 1008
19.04 - 17:30 Uhr 7.1 0.6 6.3 95 30 310 1008
19.04 - 17:20 Uhr 7.1 0.5 6.1 94 26 300 1008
19.04 - 17:10 Uhr 7.1 0.7 6.1 94 25 290 1008
19.04 - 17:00 Uhr 7.1 0.6 6.3 94 28 310 1008
19.04 - 16:50 Uhr 7.2 0.5 6.5 95 21 300 1008
19.04 - 16:40 Uhr 7.3 0.6 6.5 95 22 310 1008
19.04 - 16:30 Uhr 7.4 0.4 6.6 95 25 320 1008
19.04 - 16:20 Uhr 7.4 0.4 6.5 94 23 320 1008
19.04 - 16:10 Uhr 7.4 0.5 6.3 92 24 310 1009
19.04 - 16:00 Uhr 7.4 0.4 6.4 93 18 320 1009
19.04 - 15:50 Uhr 7.4 0.6 6.7 95 23 310 1009
19.04 - 15:40 Uhr 7.4 0.8 6.7 96 23 300 1009
19.04 - 15:30 Uhr 7.3 0.6 6.6 95 25 310 1009
19.04 - 15:20 Uhr 7.3 0.5 6.6 95 22 320 1009
19.04 - 15:10 Uhr 7.4 0.6 6.8 96 21 310 1009
19.04 - 15:00 Uhr 7.4 0.5 6.7 95 20 310 1009
19.04 - 14:50 Uhr 7.5 0.6 7.0 96 16 320 1009
19.04 - 14:40 Uhr 7.4 0.8 6.8 96 19 300 1009
19.04 - 14:30 Uhr 7.5 0.9 6.8 96 21 320 1009
19.04 - 14:20 Uhr 7.5 0.9 6.9 96 22 320 1009
19.04 - 14:10 Uhr 7.5 0.9 6.9 96 18 320 1009
19.04 - 14:00 Uhr 7.4 0.9 6.8 96 21 320 1009
19.04 - 13:50 Uhr 7.4 1.0 6.8 96 18 330 1009
19.04 - 13:40 Uhr 7.4 0.9 6.8 96 25 340 1009
19.04 - 13:30 Uhr 7.4 0.9 6.7 96 28 330 1009
19.04 - 13:20 Uhr 7.4 0.6 6.8 96 26 330 1009
19.04 - 13:10 Uhr 7.4 0.8 6.8 96 25 300 1009
19.04 - 13:00 Uhr 7.4 0.6 6.8 96 20 350 1009
19.04 - 12:50 Uhr 7.5 0.8 6.9 96 23 340 1009
19.04 - 12:40 Uhr 7.5 1.3 6.9 96 22 320 1009
19.04 - 12:30 Uhr 7.7 1.0 7.2 97 16 350 1009
19.04 - 12:20 Uhr 7.6 1.1 7.0 96 15 320 1009
19.04 - 12:10 Uhr 7.7 0.8 7.1 96 16 310 1009
19.04 - 12:00 Uhr 8.0 0.8 7.3 96 16 310 1009
19.04 - 11:50 Uhr 8.3 0.7 7.6 95 19 340 1009
19.04 - 11:40 Uhr 8.4 0.8 7.7 96 25 310 1009
19.04 - 11:30 Uhr 8.7 0.7 8.1 96 22 330 1009
19.04 - 11:20 Uhr 8.9 0.6 8.3 96 19 320 1009
19.04 - 11:10 Uhr 9.0 0.9 8.2 95 23 310 1009
19.04 - 11:00 Uhr 9.7 1.0 9.1 96 21 350 1009
19.04 - 10:50 Uhr 9.7 0.7 9.0 96 22 340 1009
19.04 - 10:40 Uhr 9.8 0.2 9.1 95 19 10 1009
19.04 - 10:30 Uhr 10.0 0.3 9.2 95 19 360 1008
19.04 - 10:20 Uhr 10.2 0.0 9.4 95 23 360 1008
19.04 - 10:10 Uhr 10.2 0.0 9.2 94 21 350 1008
19.04 - 10:00 Uhr 10.3 0.0 9.3 93 23 340 1008
19.04 - 09:50 Uhr 10.4 0.0 9.3 93 23 360 1008
19.04 - 09:40 Uhr 10.5 0.0 9.5 94 23 350 1008
19.04 - 09:30 Uhr 10.5 0.0 9.4 93 21 340 1008
19.04 - 09:20 Uhr 10.6 0.0 9.6 93 18 350 1008
19.04 - 09:10 Uhr 10.5 0.2 9.5 94 17 340 1008
19.04 - 09:00 Uhr 10.5 0.4 9.5 94 18 350 1008
19.04 - 08:50 Uhr 10.5 0.1 9.4 93 17 350 1008
19.04 - 08:40 Uhr 10.6 0.0 9.4 92 16 330 1009
19.04 - 08:30 Uhr 10.5 0.0 9.2 92 14 350 1009
19.04 - 08:20 Uhr 10.5 0.0 9.1 91 15 350 1009
19.04 - 08:10 Uhr 10.4 0.0 9.1 91 17 340 1009
19.04 - 08:00 Uhr 10.5 0.0 9.1 91 15 330 1009

Daten: Quelle DWD